NH42 weather

C.S.S. Heliport
Nashua, New Hampshire, United States

Public forecast

Using degrees Fahrenheit for public forecast. Weather courtesy of forecast.io.

Closest aviation weather report (METAR) to C.S.S. Heliport

Closest report is Boire Field, 3.1 nm (5.7 km) NNW. Retrieved 2019/11/13 15:56 UTC (17 minutes ago):

KASH 131556Z 32018G24KT 10SM CLR M04/M16 A3021 RMK AO2 PK WND 32026/1543 SLP239 T10391156

Closest aviation forecast (TAF) to C.S.S. Heliport

Closest forecast is Manchester-Boston Regional Airport, 11.9 nm (22.1 km) N. Retrieved 2019/11/13 12:22 UTC (4 hours ago):

TAF KMHT 131120Z 1312/1412 31009G21KT P6SM SKC FM140600 00000KT P6SM OVC250